หน้าหลัก
METAR-TAF:

METAR-TAF

ท่าอากาศยาน :

กวางจู, เกาหลีใต้

ละติจูด: 34-59-29N, ลองจิจูด: 126-22-58E, ความสูง: 16 ม.

การสังเกตสภาพอากาศปัจจุบัน

รายงานได้ทำขึ้นเมื่อ 17 นาทีที่แล้ว ณ เวลา 12:00 UTC
ลม 3 นอตจากตะวันออก/ตะวันออกเฉียงเหนือ
อุณหภูมิ 4°C
ความชื้น 75%
ความกดอากาศ 1028 hPa
ทัศนวิสัย 10 กม. หรือมากกว่า
ไม่มีเมฆต่ำกว่า 1,500 ม. และไม่มีเมฆคิวมูโลนิมบัส

METAR: RKJB 261200Z 06003KT CAVOK 04/00 Q1028 NOSIG

เวลา: 21:17 (12:17 UTC)

การพยากรณ์

รายงานได้ทำขึ้นเมื่อ 1 ชั่วโมงและ 17 นาทีที่แล้ว ณ เวลา 11:00 UTC
การพยากรณ์มีผลตั้งแต่วันที่ 26 ณ เวลา 12 UTC จนถึงวันที่ 27 ณ เวลา 18 UTC
ลม 8 นอตจากเหนือ
ทัศนวิสัย: 6000 ม.
มีเมฆกระจายเป็นบางส่วนที่ความสูง 3000 ฟุต
กำลังกลายเป็น
ตั้งแต่วันที่ 26 ณ เวลา 14 UTC จนถึงวันที่ 26 ณ เวลา 15 UTC
ลม 7 นอตจากตะวันออก/ตะวันออกเฉียงใต้

TAF: RKJB 261100Z 2612/2718 01008KT 6000 SCT030 TN01/2621Z TX12/2705Z BECMG 2614/2615 11007KT

สังเกตการณ์สภาพอากาศและพยากรณ์อากาศของสนามบินมากกว่า 4000 แห่ง (รายงาน METAR และ TAF).

สถานีที่ดูได้จะแสดงไว้ด้วยจุดสีเหลืองและสีแดงบนแผนที่.

เลื่อนเมาส์ไปเหนือจุดเพื่อดูชื่อสถานี.

แล้วคลิกเพื่อดูสังเกตการณ์และการพยากรณ์สภาพอากาศ.

ในการเปลี่ยนแผนที่: คลิกที่ปุ่มสีเขียวที่มีกากบาทสีดำเพื่อซูมเข้า; ที่ปุ่มสีเขียวที่มีขีดเพื่อซูมออก; หรือที่ลูกศรสีเขียวเพื่อไปยังแผนที่ที่อยู่ติดกัน.


METAR-TAF: